Domov               UVHVVR             MKGP            O straneh              
ZDRAVSTVENO VARSTVO RASTLIN
  MREŽA AGROMET. POSTAJ
 ► PROGNOSTIČNA OBVESTILA
AGROMETEOROLOŠKI PODATKI -
ARSO
OBVLADOVANJE TVEGANJ ZARADI
NEUGODNIH VREMENSKIH RAZMER
  ► NARAVNE NESREČE
  ► SUŠA/MOČA
  ► NAMAKANJE
  ► ŽLED (gozdarstvo)
KARTOGRAFSKI PRIKAZI
SPLETNE POVEZAVE
PROJEKTI IN PUBLIKACIJE

AGROMETEOROLOŠKA MREŽA: VREMENSKE POSTAJE IN FENOLOŠKA OPAZOVANJA

Pregled podatkov za lokacijo Otočec, meteorološka postaja 37169

Pregled senzorjev na lokaciji

ID Ime Zadnja
vrednost
Datum
zadnje
spremembe
Tip
senzorja
3924 Relativna vlaga 2 m (% RH) 60,83 % RH 17.10.2017 14:44 50YA
3925 Temperatura 2 m ( °C) 22,74 °C 17.10.2017 14:45 50YA
3926 Omočenost lista (U) 0 U 17.10.2017 14:45 A730WET
3927 Padavine 0.2 mm (mm) 0 mm 17.10.2017 14:45 Rain-O-Matic

Pregled podatkov zadnjih 24 ur

Zap.
št.
Datum in čas Otočec
Omočenost
lista
Padavine
0.2
mm
Relativna
vlaga
2
m
Temperatura
2
m
0 17.10.2017 14:00 0 0 60,83 22,74
1 17.10.2017 13:30 0 0 63,6 22,55
2 17.10.2017 13:00 0 0 63,76 22,16
3 17.10.2017 12:30 0 0 63,54 22,54
4 17.10.2017 12:00 0 0 66,63 21,55
5 17.10.2017 11:30 9,5 0 68,22 20,27
6 17.10.2017 11:00 10 0 75,16 18,5
7 17.10.2017 10:30 10 0 80,38 16,95
8 17.10.2017 10:00 10 0 87,36 15,16
9 17.10.2017 09:30 10 0 93,14 13,36
10 17.10.2017 09:00 10 0 99,12 11,55
11 17.10.2017 08:30 10 0 99,93 10,22
12 17.10.2017 08:00 10 0 99,93 9,4
13 17.10.2017 07:30 10 0 99,93 8,5
14 17.10.2017 07:00 10 0 99,93 8,25
15 17.10.2017 06:30 10 0 99,93 8,38
16 17.10.2017 06:00 10 0 99,93 8,42
17 17.10.2017 05:30 10 0 99,93 8,51
18 17.10.2017 05:00 10 0 99,93 8,68
19 17.10.2017 04:30 10 0 99,93 9,01
20 17.10.2017 04:00 10 0 99,93 9,28
21 17.10.2017 03:30 10 0,2 99,93 9,39
22 17.10.2017 03:00 10 0 99,93 9,45
23 17.10.2017 02:30 10 0 99,93 9,56
24 17.10.2017 02:00 10 0 99,93 9,84
25 17.10.2017 01:30 10 0 99,93 9,99
26 17.10.2017 01:00 10 0 99,93 10,13
27 17.10.2017 00:30 10 0 99,93 10,55
28 17.10.2017 00:00 10 0 99,93 10,87
29 16.10.2017 23:30 10 0 99,93 11,28
30 16.10.2017 23:00 10 0 99,93 11,33
31 16.10.2017 22:30 10 0 99,93 11,45
32 16.10.2017 22:00 10 0 99,93 11,26
33 16.10.2017 21:30 10 0 99,93 11,6
34 16.10.2017 21:00 10 0 99,93 11,67
35 16.10.2017 20:30 10 0 99,9 12,26
36 16.10.2017 20:00 9 0 99,76 12,8
37 16.10.2017 19:30 6 0 99,07 13,16
38 16.10.2017 19:00 3 0 98,61 13,82
39 16.10.2017 18:30 2 0 95,92 14,65
40 16.10.2017 18:00 1 0 95,07 14,8
41 16.10.2017 17:30 0 0 90,06 16,02
42 16.10.2017 17:00 0 0 87,35 16,85
43 16.10.2017 16:30 0 0 79,51 18,68
44 16.10.2017 16:00 0 0 69,91 21,54
45 16.10.2017 15:30 0 0 59,95 23,32
© 2011 Ministrstvo za kmetijstvo, gozdarstvo in prehrano. Vse pravice pridržane.